WSSS/SIN METAR and TAF weather

Enter ICAO airport designator
Station Type Date Time Source
WSSS METAR 2019/08/26 07:00 UTC NOAA

WSSS 260700Z 12009KT 090V160 9999 FEW020TCU BKN300 32/24 Q1008 NOSIG


Station Type Date Time Source
WSSS Decoded METAR 2019/08/26 07:00 UTC NOAA

Station name not available
Aug 26, 2019 - 03:00 AM EDT / 2019.08.26 0700 UTC
Wind: from the ESE (120 degrees) at 10 MPH (9 KT) (direction variable):0
Visibility: greater than 7 mile(s):0
Sky conditions: mostly cloudy
Weather: Towering cumulus clouds observed
Temperature: 89 F (32 C)
Heat index: 98.4 F (36.9 C):1
Dew Point: 75 F (24 C)
Relative Humidity: 62%
Pressure (altimeter): 29.77 in. Hg (1008 hPa)
ob: WSSS 260700Z 12009KT 090V160 9999 FEW020TCU BKN300 32/24 Q1008 NOSIG
cycle: 7

Station Type Date Time Source
WSSS TAF 2019/08/26 06:16 UTC NOAA

TAF WSSS 260500Z 2606/2712 17007KT 9999 FEW015 SCT020
TEMPO 2606/2609 3000 TSRA FEW012CB BKN015

Example: see airport list